sensor_id;sensor_type;location;lat;lon;timestamp;pressure;altitude;pressure_sealevel;temperature;humidity
60697;BME280;46536;54.376;19.858;2023-04-07T13:04:38;101855.98;;;14.57;55.53
60697;BME280;46536;54.376;19.858;2023-04-07T13:07:14;101857.33;;;14.58;55.34
60697;BME280;46536;54.376;19.858;2023-04-07T13:09:43;101855.58;;;14.58;55.17
60697;BME280;46536;54.376;19.858;2023-04-07T13:12:13;101858.55;;;14.58;55.48
60697;BME280;46536;54.376;19.858;2023-04-07T13:14:42;101855.77;;;14.57;55.06
60697;BME280;46536;54.376;19.858;2023-04-07T13:17:27;101856.17;;;14.56;54.97
60697;BME280;46536;54.376;19.858;2023-04-07T13:19:59;101857.00;;;14.57;55.09
60697;BME280;46536;54.376;19.858;2023-04-07T13:22:30;101852.45;;;14.57;54.84
60697;BME280;46536;54.376;19.858;2023-04-07T13:24:59;101847.21;;;14.58;54.96
60697;BME280;46536;54.376;19.858;2023-04-07T13:27:32;101846.05;;;14.56;54.92
60697;BME280;46536;54.376;19.858;2023-04-07T13:30:01;101848.05;;;14.54;54.95
60697;BME280;46536;54.376;19.858;2023-04-07T13:32:31;101843.90;;;14.52;55.24
60697;BME280;46536;54.376;19.858;2023-04-07T13:35:00;101847.70;;;14.54;55.14
60697;BME280;46536;54.376;19.858;2023-04-07T13:37:34;101846.65;;;14.53;55.27
60697;BME280;46536;54.376;19.858;2023-04-07T13:40:05;101848.83;;;14.56;55.41
60697;BME280;46536;54.376;19.858;2023-04-07T13:42:34;101847.65;;;14.60;55.56
60697;BME280;46536;54.376;19.858;2023-04-07T13:45:04;101844.39;;;14.68;55.63
60697;BME280;46536;54.376;19.858;2023-04-07T13:47:33;101838.54;;;14.75;55.73
60697;BME280;46536;54.376;19.858;2023-04-07T13:50:06;101839.31;;;14.83;55.67
60697;BME280;46536;54.376;19.858;2023-04-07T13:52:35;101841.33;;;14.90;55.73
60697;BME280;46536;54.376;19.858;2023-04-07T13:55:05;101838.61;;;14.97;55.84
60697;BME280;46536;54.376;19.858;2023-04-07T13:57:35;101836.20;;;15.05;55.92
60697;BME280;46536;54.376;19.858;2023-04-07T14:00:07;101836.64;;;15.17;55.94
60697;BME280;46536;54.376;19.858;2023-04-07T14:02:36;101833.19;;;15.30;56.20
60697;BME280;46536;54.376;19.858;2023-04-07T14:05:08;101829.45;;;15.41;55.81
60697;BME280;46536;54.376;19.858;2023-04-07T14:07:38;101829.33;;;15.53;55.69
60697;BME280;46536;54.376;19.858;2023-04-07T14:10:08;101831.14;;;15.65;55.78
60697;BME280;46536;54.376;19.858;2023-04-07T14:12:38;101828.96;;;15.76;55.76
60697;BME280;46536;54.376;19.858;2023-04-07T14:15:08;101825.71;;;15.87;55.60
60697;BME280;46536;54.376;19.858;2023-04-07T14:17:39;101823.45;;;15.99;55.99
60697;BME280;46536;54.376;19.858;2023-04-07T14:20:09;101824.15;;;16.12;56.11
60697;BME280;46536;54.376;19.858;2023-04-07T14:22:39;101822.85;;;16.25;56.26
60697;BME280;46536;54.376;19.858;2023-04-07T14:25:09;101821.40;;;16.39;55.50
60697;BME280;46536;54.376;19.858;2023-04-07T14:27:39;101825.62;;;16.51;54.73
60697;BME280;46536;54.376;19.858;2023-04-07T14:30:09;101824.66;;;16.61;54.35
60697;BME280;46536;54.376;19.858;2023-04-07T14:32:38;101821.27;;;16.71;54.11
60697;BME280;46536;54.376;19.858;2023-04-07T14:35:09;101824.41;;;16.82;53.73
60697;BME280;46536;54.376;19.858;2023-04-07T14:37:39;101822.43;;;16.92;53.18
60697;BME280;46536;54.376;19.858;2023-04-07T14:40:09;101822.25;;;16.99;52.79
60697;BME280;46536;54.376;19.858;2023-04-07T14:42:39;101818.13;;;17.05;52.77
60697;BME280;46536;54.376;19.858;2023-04-07T14:45:10;101823.45;;;17.11;52.54
60697;BME280;46536;54.376;19.858;2023-04-07T14:47:40;101821.27;;;17.16;52.28
60697;BME280;46536;54.376;19.858;2023-04-07T14:50:10;101821.48;;;17.20;51.93
60697;BME280;46536;54.376;19.858;2023-04-07T14:52:41;101821.86;;;17.23;51.99
60697;BME280;46536;54.376;19.858;2023-04-07T14:55:11;101818.82;;;17.28;51.78
60697;BME280;46536;54.376;19.858;2023-04-07T14:57:41;101816.52;;;17.32;51.71
60697;BME280;46536;54.376;19.858;2023-04-07T15:00:11;101812.17;;;17.34;51.33
60697;BME280;46536;54.376;19.858;2023-04-07T15:02:41;101814.70;;;17.37;51.35
60697;BME280;46536;54.376;19.858;2023-04-07T15:05:11;101812.11;;;17.40;51.36
60697;BME280;46536;54.376;19.858;2023-04-07T15:12:16;101817.13;;;17.49;51.34
60697;BME280;46536;54.376;19.858;2023-04-07T15:19:49;101823.46;;;17.48;50.75
60697;BME280;46536;54.376;19.858;2023-04-07T15:22:24;101819.77;;;17.45;50.63
60697;BME280;46536;54.376;19.858;2023-04-07T15:24:54;101824.38;;;17.40;50.62
60697;BME280;46536;54.376;19.858;2023-04-07T15:27:33;101823.20;;;17.39;50.68
60697;BME280;46536;54.376;19.858;2023-04-07T15:30:03;101833.30;;;17.38;50.74
60697;BME280;46536;54.376;19.858;2023-04-07T15:32:33;101832.79;;;17.37;50.83
60697;BME280;46536;54.376;19.858;2023-04-07T15:35:08;101831.73;;;17.38;50.77
60697;BME280;46536;54.376;19.858;2023-04-07T15:38:03;101835.60;;;17.37;50.90
60697;BME280;46536;54.376;19.858;2023-04-07T15:44:06;101832.38;;;17.39;50.77
60697;BME280;46536;54.376;19.858;2023-04-07T15:46:45;101834.25;;;17.40;50.67
60697;BME280;46536;54.376;19.858;2023-04-07T15:49:31;101835.51;;;17.39;50.64
60697;BME280;46536;54.376;19.858;2023-04-07T15:52:05;101836.67;;;17.37;50.51
60697;BME280;46536;54.376;19.858;2023-04-07T15:54:54;101838.33;;;17.35;50.56
60697;BME280;46536;54.376;19.858;2023-04-07T15:57:24;101839.42;;;17.34;50.63
60697;BME280;46536;54.376;19.858;2023-04-07T15:59:53;101841.63;;;17.32;50.68
60697;BME280;46536;54.376;19.858;2023-04-07T16:02:23;101839.00;;;17.32;50.61
60697;BME280;46536;54.376;19.858;2023-04-07T16:04:53;101841.16;;;17.31;50.64
60697;BME280;46536;54.376;19.858;2023-04-07T16:07:22;101840.66;;;17.30;50.75
60697;BME280;46536;54.376;19.858;2023-04-07T16:09:52;101839.12;;;17.29;50.81
60697;BME280;46536;54.376;19.858;2023-04-07T16:12:21;101844.99;;;17.28;50.82
60697;BME280;46536;54.376;19.858;2023-04-07T16:14:50;101848.86;;;17.27;50.78
60697;BME280;46536;54.376;19.858;2023-04-07T16:17:26;101846.77;;;17.28;50.84
60697;BME280;46536;54.376;19.858;2023-04-07T16:20:18;101847.30;;;17.27;50.75
60697;BME280;46536;54.376;19.858;2023-04-07T16:22:47;101848.43;;;17.26;50.80
60697;BME280;46536;54.376;19.858;2023-04-07T16:26:05;101853.98;;;17.23;50.81
60697;BME280;46536;54.376;19.858;2023-04-07T16:28:26;101852.58;;;17.20;50.57
60697;BME280;46536;54.376;19.858;2023-04-07T16:30:59;101853.05;;;17.16;50.66
60697;BME280;46536;54.376;19.858;2023-04-07T16:33:36;101853.98;;;17.12;50.68
60697;BME280;46536;54.376;19.858;2023-04-07T16:36:19;101852.42;;;17.04;50.54
60697;BME280;46536;54.376;19.858;2023-04-07T16:38:54;101859.64;;;16.99;50.65
60697;BME280;46536;54.376;19.858;2023-04-07T16:41:46;101858.69;;;16.93;50.74
60697;BME280;46536;54.376;19.858;2023-04-07T16:44:41;101866.71;;;16.91;50.91
60697;BME280;46536;54.376;19.858;2023-04-07T16:47:15;101866.48;;;16.88;50.98
60697;BME280;46536;54.376;19.858;2023-04-07T16:50:03;101868.45;;;16.82;50.93
60697;BME280;46536;54.376;19.858;2023-04-07T16:52:39;101868.14;;;16.78;50.97
60697;BME280;46536;54.376;19.858;2023-04-07T16:55:21;101869.73;;;16.70;50.98
60697;BME280;46536;54.376;19.858;2023-04-07T16:58:00;101875.17;;;16.61;51.09
60697;BME280;46536;54.376;19.858;2023-04-07T17:00:43;101875.59;;;16.51;51.30
60697;BME280;46536;54.376;19.858;2023-04-07T17:03:14;101878.95;;;16.43;51.48
60697;BME280;46536;54.376;19.858;2023-04-07T17:05:45;101883.14;;;16.35;51.65
60697;BME280;46536;54.376;19.858;2023-04-07T17:08:16;101883.28;;;16.26;51.73
60697;BME280;46536;54.376;19.858;2023-04-07T17:10:47;101890.58;;;16.20;51.87
60697;BME280;46536;54.376;19.858;2023-04-07T17:13:17;101893.13;;;16.14;52.01
60697;BME280;46536;54.376;19.858;2023-04-07T17:15:46;101893.27;;;16.06;52.17
60697;BME280;46536;54.376;19.858;2023-04-07T17:18:16;101896.59;;;15.97;52.21
60697;BME280;46536;54.376;19.858;2023-04-07T17:20:45;101898.45;;;15.90;52.24
60697;BME280;46536;54.376;19.858;2023-04-07T17:23:14;101899.78;;;15.83;52.41
60697;BME280;46536;54.376;19.858;2023-04-07T17:25:51;101900.68;;;15.74;52.31
60697;BME280;46536;54.376;19.858;2023-04-07T17:28:20;101905.20;;;15.65;52.52
60697;BME280;46536;54.376;19.858;2023-04-07T17:30:53;101910.49;;;15.59;52.57
60697;BME280;46536;54.376;19.858;2023-04-07T17:33:23;101911.15;;;15.51;52.72
60697;BME280;46536;54.376;19.858;2023-04-07T17:35:53;101915.56;;;15.46;52.91
60697;BME280;46536;54.376;19.858;2023-04-07T17:38:25;101919.75;;;15.41;52.94
60697;BME280;46536;54.376;19.858;2023-04-07T17:40:59;101927.59;;;15.37;53.02
60697;BME280;46536;54.376;19.858;2023-04-07T17:43:35;101933.27;;;15.36;53.20
60697;BME280;46536;54.376;19.858;2023-04-07T17:46:08;101933.83;;;15.34;53.12
60697;BME280;46536;54.376;19.858;2023-04-07T17:48:40;101936.66;;;15.34;53.08
60697;BME280;46536;54.376;19.858;2023-04-07T17:51:13;101938.65;;;15.32;53.00
60697;BME280;46536;54.376;19.858;2023-04-07T17:53:45;101946.67;;;15.28;53.01
60697;BME280;46536;54.376;19.858;2023-04-07T17:56:44;101947.34;;;15.24;53.07
60697;BME280;46536;54.376;19.858;2023-04-07T18:03:10;101959.70;;;15.12;53.09
60697;BME280;46536;54.376;19.858;2023-04-07T18:09:10;101965.69;;;15.00;53.03
60697;BME280;46536;54.376;19.858;2023-04-07T18:21:20;101976.67;;;14.70;53.95
60697;BME280;46536;54.376;19.858;2023-04-07T18:24:04;101979.84;;;14.65;54.21
60697;BME280;46536;54.376;19.858;2023-04-07T18:26:59;101983.42;;;14.57;54.46
60697;BME280;46536;54.376;19.858;2023-04-07T18:30:00;101984.27;;;14.48;54.55
60697;BME280;46536;54.376;19.858;2023-04-07T18:35:29;101997.21;;;14.35;54.95
60697;BME280;46536;54.376;19.858;2023-04-07T18:38:35;101996.77;;;14.27;55.00
60697;BME280;46536;54.376;19.858;2023-04-07T18:41:38;101999.27;;;14.20;55.10
60697;BME280;46536;54.376;19.858;2023-04-07T18:44:14;102004.77;;;14.12;55.42
60697;BME280;46536;54.376;19.858;2023-04-07T18:47:20;102009.48;;;14.06;55.46
60697;BME280;46536;54.376;19.858;2023-04-07T18:53:24;102017.73;;;13.94;55.75
60697;BME280;46536;54.376;19.858;2023-04-07T18:56:18;102024.36;;;13.88;55.86
60697;BME280;46536;54.376;19.858;2023-04-07T19:02:02;102025.55;;;13.77;56.25
60697;BME280;46536;54.376;19.858;2023-04-07T19:04:35;102031.13;;;13.71;56.29
60697;BME280;46536;54.376;19.858;2023-04-07T19:07:09;102032.00;;;13.65;56.56
60697;BME280;46536;54.376;19.858;2023-04-07T19:09:42;102033.56;;;13.59;56.43
60697;BME280;46536;54.376;19.858;2023-04-07T19:12:32;102027.81;;;13.52;56.55
60697;BME280;46536;54.376;19.858;2023-04-07T19:15:22;102028.27;;;13.48;56.68
60697;BME280;46536;54.376;19.858;2023-04-07T19:17:54;102032.90;;;13.45;56.77
60697;BME280;46536;54.376;19.858;2023-04-07T19:26:58;102039.77;;;13.36;56.95
60697;BME280;46536;54.376;19.858;2023-04-07T19:29:27;102039.46;;;13.34;57.04
60697;BME280;46536;54.376;19.858;2023-04-07T19:32:29;102045.10;;;13.32;57.08
60697;BME280;46536;54.376;19.858;2023-04-07T19:34:59;102045.52;;;13.30;57.15
60697;BME280;46536;54.376;19.858;2023-04-07T19:40:52;102043.09;;;13.23;57.56
60697;BME280;46536;54.376;19.858;2023-04-07T19:43:52;102048.09;;;13.17;57.40
60697;BME280;46536;54.376;19.858;2023-04-07T19:46:28;102049.41;;;13.13;57.44
60697;BME280;46536;54.376;19.858;2023-04-07T19:49:20;102048.81;;;13.10;57.56
60697;BME280;46536;54.376;19.858;2023-04-07T19:51:52;102047.87;;;13.06;57.77
60697;BME280;46536;54.376;19.858;2023-04-07T19:54:51;102047.42;;;13.03;58.02
60697;BME280;46536;54.376;19.858;2023-04-07T19:57:26;102050.76;;;13.02;58.07
60697;BME280;46536;54.376;19.858;2023-04-07T19:59:59;102057.73;;;13.01;58.29
60697;BME280;46536;54.376;19.858;2023-04-07T20:02:28;102059.02;;;12.98;58.32
60697;BME280;46536;54.376;19.858;2023-04-07T20:04:57;102056.16;;;12.95;58.35
60697;BME280;46536;54.376;19.858;2023-04-07T20:07:26;102062.80;;;12.95;58.40
60697;BME280;46536;54.376;19.858;2023-04-07T20:09:55;102063.67;;;12.94;58.44
60697;BME280;46536;54.376;19.858;2023-04-07T20:12:25;102064.20;;;12.94;58.59
60697;BME280;46536;54.376;19.858;2023-04-07T20:14:59;102067.20;;;12.93;58.55
60697;BME280;46536;54.376;19.858;2023-04-07T20:17:28;102066.16;;;12.93;58.54
60697;BME280;46536;54.376;19.858;2023-04-07T20:20:00;102071.53;;;12.87;58.44
60697;BME280;46536;54.376;19.858;2023-04-07T20:22:28;102081.25;;;12.81;58.42
60697;BME280;46536;54.376;19.858;2023-04-07T20:24:58;102085.20;;;12.77;58.44
60697;BME280;46536;54.376;19.858;2023-04-07T20:27:32;102083.73;;;12.73;58.43
60697;BME280;46536;54.376;19.858;2023-04-07T20:30:02;102087.52;;;12.68;58.51
60697;BME280;46536;54.376;19.858;2023-04-07T20:32:32;102094.15;;;12.66;58.46
60697;BME280;46536;54.376;19.858;2023-04-07T20:35:02;102091.02;;;12.66;58.72
60697;BME280;46536;54.376;19.858;2023-04-07T20:37:31;102099.73;;;12.67;58.77
60697;BME280;46536;54.376;19.858;2023-04-07T20:40:01;102101.11;;;12.68;58.80
60697;BME280;46536;54.376;19.858;2023-04-07T20:42:33;102098.31;;;12.68;58.89
60697;BME280;46536;54.376;19.858;2023-04-07T20:45:03;102105.80;;;12.69;58.89
60697;BME280;46536;54.376;19.858;2023-04-07T20:47:34;102108.09;;;12.68;58.88
60697;BME280;46536;54.376;19.858;2023-04-07T20:50:05;102115.23;;;12.67;58.89
60697;BME280;46536;54.376;19.858;2023-04-07T20:52:35;102112.98;;;12.66;59.03
60697;BME280;46536;54.376;19.858;2023-04-07T20:55:08;102115.98;;;12.64;58.97
60697;BME280;46536;54.376;19.858;2023-04-07T20:57:40;102115.00;;;12.62;59.05
60697;BME280;46536;54.376;19.858;2023-04-07T21:00:14;102117.63;;;12.61;59.11
60697;BME280;46536;54.376;19.858;2023-04-07T21:02:46;102118.98;;;12.63;59.28
60697;BME280;46536;54.376;19.858;2023-04-07T21:05:16;102119.48;;;12.64;59.16
60697;BME280;46536;54.376;19.858;2023-04-07T21:07:46;102121.24;;;12.63;59.29
60697;BME280;46536;54.376;19.858;2023-04-07T21:10:16;102120.59;;;12.61;59.25
60697;BME280;46536;54.376;19.858;2023-04-07T21:12:46;102132.52;;;12.58;59.58
60697;BME280;46536;54.376;19.858;2023-04-07T21:15:15;102133.20;;;12.52;59.34
60697;BME280;46536;54.376;19.858;2023-04-07T21:17:44;102130.63;;;12.49;59.28
60697;BME280;46536;54.376;19.858;2023-04-07T21:20:14;102133.96;;;12.48;59.35
60697;BME280;46536;54.376;19.858;2023-04-07T21:22:46;102133.27;;;12.47;59.51
60697;BME280;46536;54.376;19.858;2023-04-07T21:25:18;102135.34;;;12.48;59.67
60697;BME280;46536;54.376;19.858;2023-04-07T21:27:47;102137.27;;;12.48;59.85
60697;BME280;46536;54.376;19.858;2023-04-07T21:30:17;102137.33;;;12.45;60.01
60697;BME280;46536;54.376;19.858;2023-04-07T21:32:47;102138.67;;;12.40;60.17
60697;BME280;46536;54.376;19.858;2023-04-07T21:35:16;102141.60;;;12.33;60.47
60697;BME280;46536;54.376;19.858;2023-04-07T21:37:47;102141.55;;;12.26;60.63
60697;BME280;46536;54.376;19.858;2023-04-07T21:40:16;102139.58;;;12.21;60.82
60697;BME280;46536;54.376;19.858;2023-04-07T21:42:45;102144.61;;;12.22;60.91
60697;BME280;46536;54.376;19.858;2023-04-07T21:45:15;102143.89;;;12.23;60.93
60697;BME280;46536;54.376;19.858;2023-04-07T21:47:45;102146.53;;;12.22;60.94
60697;BME280;46536;54.376;19.858;2023-04-07T21:50:15;102152.40;;;12.24;61.05
60697;BME280;46536;54.376;19.858;2023-04-07T21:52:44;102157.28;;;12.24;61.17
60697;BME280;46536;54.376;19.858;2023-04-07T21:55:18;102157.08;;;12.18;61.36
60697;BME280;46536;54.376;19.858;2023-04-07T21:57:49;102158.98;;;12.09;61.53
60697;BME280;46536;54.376;19.858;2023-04-07T22:00:22;102157.08;;;12.00;61.77
60697;BME280;46536;54.376;19.858;2023-04-07T22:02:51;102154.03;;;11.95;61.99
60697;BME280;46536;54.376;19.858;2023-04-07T22:05:21;102158.74;;;11.94;62.31
60697;BME280;46536;54.376;19.858;2023-04-07T22:07:50;102156.36;;;11.92;62.34
60697;BME280;46536;54.376;19.858;2023-04-07T22:10:20;102157.57;;;11.92;62.40
60697;BME280;46536;54.376;19.858;2023-04-07T22:12:49;102158.55;;;11.95;62.48
60697;BME280;46536;54.376;19.858;2023-04-07T22:15:19;102159.74;;;11.97;62.39
60697;BME280;46536;54.376;19.858;2023-04-07T22:17:49;102160.60;;;11.98;62.48
60697;BME280;46536;54.376;19.858;2023-04-07T22:20:21;102162.66;;;12.00;62.50
60697;BME280;46536;54.376;19.858;2023-04-07T22:22:50;102162.80;;;12.01;62.51
60697;BME280;46536;54.376;19.858;2023-04-07T22:25:22;102166.02;;;12.05;62.43
60697;BME280;46536;54.376;19.858;2023-04-07T22:27:51;102172.36;;;12.11;62.44
60697;BME280;46536;54.376;19.858;2023-04-07T22:30:21;102179.77;;;12.15;62.37
60697;BME280;46536;54.376;19.858;2023-04-07T22:32:52;102183.36;;;12.19;62.22
60697;BME280;46536;54.376;19.858;2023-04-07T22:35:21;102184.54;;;12.21;62.27
60697;BME280;46536;54.376;19.858;2023-04-07T22:37:50;102188.33;;;12.23;62.26
60697;BME280;46536;54.376;19.858;2023-04-07T22:40:19;102191.44;;;12.24;62.28
60697;BME280;46536;54.376;19.858;2023-04-07T22:42:49;102188.83;;;12.24;62.16
60697;BME280;46536;54.376;19.858;2023-04-07T22:45:21;102189.89;;;12.23;62.06
60697;BME280;46536;54.376;19.858;2023-04-07T22:47:51;102190.42;;;12.23;62.05
60697;BME280;46536;54.376;19.858;2023-04-07T22:50:21;102191.18;;;12.20;62.04
60697;BME280;46536;54.376;19.858;2023-04-07T22:52:50;102192.26;;;12.18;62.04
60697;BME280;46536;54.376;19.858;2023-04-07T22:55:22;102197.02;;;12.15;61.97
60697;BME280;46536;54.376;19.858;2023-04-07T22:57:52;102196.67;;;12.15;62.05
60697;BME280;46536;54.376;19.858;2023-04-07T23:00:21;102198.61;;;12.14;62.22
60697;BME280;46536;54.376;19.858;2023-04-07T23:02:51;102203.10;;;12.15;62.12
60697;BME280;46536;54.376;19.858;2023-04-07T23:05:21;102207.14;;;12.13;62.21
60697;BME280;46536;54.376;19.858;2023-04-07T23:07:51;102206.27;;;12.13;62.12
60697;BME280;46536;54.376;19.858;2023-04-07T23:10:24;102205.57;;;12.13;62.02
60697;BME280;46536;54.376;19.858;2023-04-07T23:12:54;102211.66;;;12.14;61.96
60697;BME280;46536;54.376;19.858;2023-04-07T23:15:24;102218.26;;;12.16;62.12
60697;BME280;46536;54.376;19.858;2023-04-07T23:17:55;102219.66;;;12.16;62.13
60697;BME280;46536;54.376;19.858;2023-04-07T23:20:26;102218.61;;;12.14;62.02
60697;BME280;46536;54.376;19.858;2023-04-07T23:22:56;102219.14;;;12.14;62.11
60697;BME280;46536;54.376;19.858;2023-04-07T23:25:26;102221.95;;;12.13;62.01
60697;BME280;46536;54.376;19.858;2023-04-07T23:27:56;102221.79;;;12.12;62.02
60697;BME280;46536;54.376;19.858;2023-04-07T23:30:28;102223.92;;;12.10;62.05
60697;BME280;46536;54.376;19.858;2023-04-07T23:32:58;102232.64;;;12.09;62.08
60697;BME280;46536;54.376;19.858;2023-04-07T23:35:28;102231.41;;;12.10;62.02
60697;BME280;46536;54.376;19.858;2023-04-07T23:37:58;102232.10;;;12.10;62.00
60697;BME280;46536;54.376;19.858;2023-04-07T23:40:28;102231.06;;;12.10;61.97
60697;BME280;46536;54.376;19.858;2023-04-07T23:42:58;102230.05;;;12.08;62.03
60697;BME280;46536;54.376;19.858;2023-04-07T23:45:28;102228.15;;;12.07;62.13
60697;BME280;46536;54.376;19.858;2023-04-07T23:47:58;102229.14;;;12.10;62.14
60697;BME280;46536;54.376;19.858;2023-04-07T23:50:31;102227.73;;;12.12;62.19
60697;BME280;46536;54.376;19.858;2023-04-07T23:53:01;102231.53;;;12.13;62.22
60697;BME280;46536;54.376;19.858;2023-04-07T23:55:31;102232.03;;;12.14;62.27
60697;BME280;46536;54.376;19.858;2023-04-07T23:58:01;102239.69;;;12.15;62.17
